sensor_id;sensor_type;location;lat;lon;timestamp;pressure;altitude;pressure_sealevel;temperature;humidity
60355;BME280;46198;51.464;-0.066;2023-07-22T00:00:49;101317.19;;;16.17;100.00
60355;BME280;46198;51.464;-0.066;2023-07-22T00:03:17;101315.78;;;16.14;100.00
60355;BME280;46198;51.464;-0.066;2023-07-22T00:05:46;101316.88;;;16.13;100.00
60355;BME280;46198;51.464;-0.066;2023-07-22T00:08:14;101327.22;;;16.11;100.00
60355;BME280;46198;51.464;-0.066;2023-07-22T00:10:42;101321.41;;;16.08;100.00
60355;BME280;46198;51.464;-0.066;2023-07-22T00:13:11;101317.03;;;16.07;100.00
60355;BME280;46198;51.464;-0.066;2023-07-22T00:15:39;101316.44;;;16.05;100.00
60355;BME280;46198;51.464;-0.066;2023-07-22T00:18:09;101316.66;;;16.03;100.00
60355;BME280;46198;51.464;-0.066;2023-07-22T00:20:37;101316.34;;;16.00;100.00
60355;BME280;46198;51.464;-0.066;2023-07-22T00:23:05;101305.50;;;15.93;100.00
60355;BME280;46198;51.464;-0.066;2023-07-22T00:25:33;101312.31;;;15.90;100.00
60355;BME280;46198;51.464;-0.066;2023-07-22T00:28:02;101307.69;;;15.91;100.00
60355;BME280;46198;51.464;-0.066;2023-07-22T00:30:30;101307.31;;;15.87;100.00
60355;BME280;46198;51.464;-0.066;2023-07-22T00:32:58;101302.91;;;15.86;100.00
60355;BME280;46198;51.464;-0.066;2023-07-22T00:35:28;101300.69;;;15.83;100.00
60355;BME280;46198;51.464;-0.066;2023-07-22T00:37:56;101301.16;;;15.80;100.00
60355;BME280;46198;51.464;-0.066;2023-07-22T00:40:24;101293.91;;;15.74;100.00
60355;BME280;46198;51.464;-0.066;2023-07-22T00:42:53;101300.47;;;15.73;100.00
60355;BME280;46198;51.464;-0.066;2023-07-22T00:45:21;101292.75;;;15.70;100.00
60355;BME280;46198;51.464;-0.066;2023-07-22T00:47:49;101293.81;;;15.69;100.00
60355;BME280;46198;51.464;-0.066;2023-07-22T00:50:18;101293.81;;;15.69;100.00
60355;BME280;46198;51.464;-0.066;2023-07-22T00:52:47;101292.59;;;15.65;100.00
60355;BME280;46198;51.464;-0.066;2023-07-22T00:55:16;101291.44;;;15.61;100.00
60355;BME280;46198;51.464;-0.066;2023-07-22T00:57:44;101282.97;;;15.62;100.00
60355;BME280;46198;51.464;-0.066;2023-07-22T01:00:12;101282.38;;;15.60;100.00
60355;BME280;46198;51.464;-0.066;2023-07-22T01:02:43;101273.22;;;15.55;100.00
60355;BME280;46198;51.464;-0.066;2023-07-22T01:05:11;101265.00;;;15.55;100.00
60355;BME280;46198;51.464;-0.066;2023-07-22T01:07:41;101265.50;;;15.51;100.00
60355;BME280;46198;51.464;-0.066;2023-07-22T01:10:12;101259.53;;;15.55;100.00
60355;BME280;46198;51.464;-0.066;2023-07-22T01:12:43;101258.38;;;15.50;100.00
60355;BME280;46198;51.464;-0.066;2023-07-22T01:15:11;101265.66;;;15.45;100.00
60355;BME280;46198;51.464;-0.066;2023-07-22T01:17:39;101255.38;;;15.52;100.00
60355;BME280;46198;51.464;-0.066;2023-07-22T01:20:08;101263.47;;;15.47;100.00
60355;BME280;46198;51.464;-0.066;2023-07-22T01:22:37;101258.88;;;15.47;100.00
60355;BME280;46198;51.464;-0.066;2023-07-22T01:25:08;101258.75;;;15.42;100.00
60355;BME280;46198;51.464;-0.066;2023-07-22T01:27:36;101264.47;;;15.41;100.00
60355;BME280;46198;51.464;-0.066;2023-07-22T01:30:05;101265.88;;;15.43;100.00
60355;BME280;46198;51.464;-0.066;2023-07-22T01:32:36;101249.47;;;15.43;100.00
60355;BME280;46198;51.464;-0.066;2023-07-22T01:35:06;101250.53;;;15.42;100.00
60355;BME280;46198;51.464;-0.066;2023-07-22T01:37:35;101263.63;;;15.40;100.00
60355;BME280;46198;51.464;-0.066;2023-07-22T01:40:05;101256.84;;;15.43;100.00
60355;BME280;46198;51.464;-0.066;2023-07-22T01:42:40;101250.91;;;15.34;100.00
60355;BME280;46198;51.464;-0.066;2023-07-22T01:45:09;101251.16;;;15.33;100.00
60355;BME280;46198;51.464;-0.066;2023-07-22T01:47:38;101250.44;;;15.37;100.00
60355;BME280;46198;51.464;-0.066;2023-07-22T01:50:07;101247.34;;;15.34;100.00
60355;BME280;46198;51.464;-0.066;2023-07-22T01:52:36;101241.88;;;15.34;100.00
60355;BME280;46198;51.464;-0.066;2023-07-22T01:55:05;101238.56;;;15.32;100.00
60355;BME280;46198;51.464;-0.066;2023-07-22T01:57:39;101232.72;;;15.28;100.00
60355;BME280;46198;51.464;-0.066;2023-07-22T02:00:08;101243.91;;;15.26;100.00
60355;BME280;46198;51.464;-0.066;2023-07-22T02:02:41;101242.50;;;15.24;100.00
60355;BME280;46198;51.464;-0.066;2023-07-22T02:05:10;101236.53;;;15.27;100.00
60355;BME280;46198;51.464;-0.066;2023-07-22T02:07:39;101239.75;;;15.24;100.00
60355;BME280;46198;51.464;-0.066;2023-07-22T02:10:08;101238.66;;;15.25;100.00
60355;BME280;46198;51.464;-0.066;2023-07-22T02:12:37;101225.59;;;15.27;100.00
60355;BME280;46198;51.464;-0.066;2023-07-22T02:15:09;101229.91;;;15.23;100.00
60355;BME280;46198;51.464;-0.066;2023-07-22T02:17:37;101233.69;;;15.22;100.00
60355;BME280;46198;51.464;-0.066;2023-07-22T02:20:07;101223.13;;;15.25;100.00
60355;BME280;46198;51.464;-0.066;2023-07-22T02:22:36;101220.59;;;15.24;100.00
60355;BME280;46198;51.464;-0.066;2023-07-22T02:25:05;101224.44;;;15.23;100.00
60355;BME280;46198;51.464;-0.066;2023-07-22T02:27:34;101218.94;;;15.23;100.00
60355;BME280;46198;51.464;-0.066;2023-07-22T02:30:03;101215.97;;;15.24;100.00
60355;BME280;46198;51.464;-0.066;2023-07-22T02:32:33;101216.44;;;15.21;100.00
60355;BME280;46198;51.464;-0.066;2023-07-22T02:35:01;101212.41;;;15.24;100.00
60355;BME280;46198;51.464;-0.066;2023-07-22T02:37:29;101213.38;;;15.18;100.00
60355;BME280;46198;51.464;-0.066;2023-07-22T02:39:57;101206.34;;;15.22;100.00
60355;BME280;46198;51.464;-0.066;2023-07-22T02:42:25;101210.16;;;15.21;100.00
60355;BME280;46198;51.464;-0.066;2023-07-22T02:44:55;101199.81;;;15.23;100.00
60355;BME280;46198;51.464;-0.066;2023-07-22T02:47:23;101206.94;;;15.24;100.00
60355;BME280;46198;51.464;-0.066;2023-07-22T02:49:53;101206.69;;;15.25;100.00
60355;BME280;46198;51.464;-0.066;2023-07-22T02:52:21;101211.31;;;15.25;100.00
60355;BME280;46198;51.464;-0.066;2023-07-22T02:55:04;101206.69;;;15.25;100.00
60355;BME280;46198;51.464;-0.066;2023-07-22T02:57:33;101206.34;;;15.22;100.00
60355;BME280;46198;51.464;-0.066;2023-07-22T03:00:02;101205.84;;;15.25;100.00
60355;BME280;46198;51.464;-0.066;2023-07-22T03:02:34;101209.66;;;15.24;100.00
60355;BME280;46198;51.464;-0.066;2023-07-22T03:05:05;101209.66;;;15.24;100.00
60355;BME280;46198;51.464;-0.066;2023-07-22T03:07:35;101210.50;;;15.24;100.00
60355;BME280;46198;51.464;-0.066;2023-07-22T03:10:04;101216.22;;;15.23;100.00
60355;BME280;46198;51.464;-0.066;2023-07-22T03:12:33;101209.44;;;15.25;100.00
60355;BME280;46198;51.464;-0.066;2023-07-22T03:15:01;101212.88;;;15.21;100.00
60355;BME280;46198;51.464;-0.066;2023-07-22T03:17:30;101206.09;;;15.23;100.00
60355;BME280;46198;51.464;-0.066;2023-07-22T03:19:58;101210.97;;;15.21;100.00
60355;BME280;46198;51.464;-0.066;2023-07-22T03:22:28;101215.63;;;15.21;100.00
60355;BME280;46198;51.464;-0.066;2023-07-22T03:24:56;101208.47;;;15.20;100.00
60355;BME280;46198;51.464;-0.066;2023-07-22T03:30:44;101202.66;;;15.16;100.00
60355;BME280;46198;51.464;-0.066;2023-07-22T03:33:12;101203.97;;;15.14;100.00
60355;BME280;46198;51.464;-0.066;2023-07-22T03:35:41;101202.06;;;15.14;100.00
60355;BME280;46198;51.464;-0.066;2023-07-22T03:38:14;101199.31;;;15.14;100.00
60355;BME280;46198;51.464;-0.066;2023-07-22T03:40:42;101200.19;;;15.15;100.00
60355;BME280;46198;51.464;-0.066;2023-07-22T03:43:10;101205.66;;;15.15;100.00
60355;BME280;46198;51.464;-0.066;2023-07-22T03:45:38;101198.16;;;15.10;100.00
60355;BME280;46198;51.464;-0.066;2023-07-22T03:48:06;101199.59;;;15.13;100.00
60355;BME280;46198;51.464;-0.066;2023-07-22T03:50:36;101195.16;;;15.12;100.00
60355;BME280;46198;51.464;-0.066;2023-07-22T03:53:04;101193.50;;;15.11;100.00
60355;BME280;46198;51.464;-0.066;2023-07-22T03:55:33;101183.41;;;15.11;100.00
60355;BME280;46198;51.464;-0.066;2023-07-22T03:58:01;101183.19;;;15.13;100.00
60355;BME280;46198;51.464;-0.066;2023-07-22T04:00:29;101186.72;;;15.13;100.00
60355;BME280;46198;51.464;-0.066;2023-07-22T04:02:58;101193.03;;;15.14;100.00
60355;BME280;46198;51.464;-0.066;2023-07-22T04:05:26;101188.88;;;15.11;100.00
60355;BME280;46198;51.464;-0.066;2023-07-22T04:07:54;101191.88;;;15.10;100.00
60355;BME280;46198;51.464;-0.066;2023-07-22T04:10:22;101190.19;;;15.08;100.00
60355;BME280;46198;51.464;-0.066;2023-07-22T04:12:52;101195.44;;;15.10;100.00
60355;BME280;46198;51.464;-0.066;2023-07-22T04:15:20;101198.38;;;15.08;100.00
60355;BME280;46198;51.464;-0.066;2023-07-22T04:17:48;101193.50;;;15.11;100.00
60355;BME280;46198;51.464;-0.066;2023-07-22T04:20:16;101183.06;;;15.07;100.00
60355;BME280;46198;51.464;-0.066;2023-07-22T04:22:44;101185.31;;;15.11;100.00
60355;BME280;46198;51.464;-0.066;2023-07-22T04:25:12;101189.13;;;15.10;100.00
60355;BME280;46198;51.464;-0.066;2023-07-22T04:27:41;101188.03;;;15.11;100.00
60355;BME280;46198;51.464;-0.066;2023-07-22T04:30:11;101177.94;;;15.11;100.00
60355;BME280;46198;51.464;-0.066;2023-07-22T04:32:47;101186.72;;;15.13;100.00
60355;BME280;46198;51.464;-0.066;2023-07-22T04:35:16;101178.88;;;15.17;100.00
60355;BME280;46198;51.464;-0.066;2023-07-22T04:37:44;101178.53;;;15.13;100.00
60355;BME280;46198;51.464;-0.066;2023-07-22T04:40:12;101172.22;;;15.13;100.00
60355;BME280;46198;51.464;-0.066;2023-07-22T04:42:43;101173.66;;;15.15;100.00
60355;BME280;46198;51.464;-0.066;2023-07-22T04:45:12;101160.22;;;15.14;100.00
60355;BME280;46198;51.464;-0.066;2023-07-22T04:47:40;101165.56;;;15.20;100.00
60355;BME280;46198;51.464;-0.066;2023-07-22T04:50:11;101167.44;;;15.20;100.00
60355;BME280;46198;51.464;-0.066;2023-07-22T04:52:41;101160.91;;;15.21;100.00
60355;BME280;46198;51.464;-0.066;2023-07-22T04:55:10;101164.38;;;15.16;100.00
60355;BME280;46198;51.464;-0.066;2023-07-22T04:57:39;101163.53;;;15.16;100.00
60355;BME280;46198;51.464;-0.066;2023-07-22T05:00:09;101176.13;;;15.17;100.00
60355;BME280;46198;51.464;-0.066;2023-07-22T05:02:40;101169.84;;;15.16;100.00
60355;BME280;46198;51.464;-0.066;2023-07-22T05:05:09;101165.78;;;15.19;100.00
60355;BME280;46198;51.464;-0.066;2023-07-22T05:07:37;101155.56;;;15.14;100.00
60355;BME280;46198;51.464;-0.066;2023-07-22T05:10:07;101144.50;;;15.21;100.00
60355;BME280;46198;51.464;-0.066;2023-07-22T05:12:39;101160.31;;;15.19;100.00
60355;BME280;46198;51.464;-0.066;2023-07-22T05:15:09;101159.22;;;15.20;100.00
60355;BME280;46198;51.464;-0.066;2023-07-22T05:17:38;101151.63;;;15.22;100.00
60355;BME280;46198;51.464;-0.066;2023-07-22T05:20:08;101150.56;;;15.23;100.00
60355;BME280;46198;51.464;-0.066;2023-07-22T05:22:37;101153.88;;;15.25;100.00
60355;BME280;46198;51.464;-0.066;2023-07-22T05:25:07;101145.66;;;15.25;100.00
60355;BME280;46198;51.464;-0.066;2023-07-22T05:27:36;101152.81;;;15.26;100.00
60355;BME280;46198;51.464;-0.066;2023-07-22T05:30:05;101151.50;;;15.28;100.00
60355;BME280;46198;51.464;-0.066;2023-07-22T05:32:45;101146.50;;;15.25;100.00
60355;BME280;46198;51.464;-0.066;2023-07-22T05:35:15;101144.13;;;15.29;100.00
60355;BME280;46198;51.464;-0.066;2023-07-22T05:37:44;101143.63;;;15.32;100.00
60355;BME280;46198;51.464;-0.066;2023-07-22T05:40:12;101145.28;;;15.33;100.00
60355;BME280;46198;51.464;-0.066;2023-07-22T05:42:40;101140.56;;;15.28;100.00
60355;BME280;46198;51.464;-0.066;2023-07-22T05:45:08;101138.38;;;15.30;100.00
60355;BME280;46198;51.464;-0.066;2023-07-22T05:47:40;101137.91;;;15.34;100.00
60355;BME280;46198;51.464;-0.066;2023-07-22T05:50:08;101134.31;;;15.33;100.00
60355;BME280;46198;51.464;-0.066;2023-07-22T05:52:38;101138.97;;;15.33;100.00
60355;BME280;46198;51.464;-0.066;2023-07-22T05:55:07;101142.03;;;15.36;100.00
60355;BME280;46198;51.464;-0.066;2023-07-22T05:57:35;101146.56;;;15.42;100.00
60355;BME280;46198;51.464;-0.066;2023-07-22T06:00:03;101145.25;;;15.45;100.00
60355;BME280;46198;51.464;-0.066;2023-07-22T06:02:38;101145.91;;;15.52;100.00
60355;BME280;46198;51.464;-0.066;2023-07-22T06:05:06;101148.66;;;15.52;100.00
60355;BME280;46198;51.464;-0.066;2023-07-22T06:07:35;101141.84;;;15.55;100.00
60355;BME280;46198;51.464;-0.066;2023-07-22T06:10:06;101153.38;;;15.57;100.00
60355;BME280;46198;51.464;-0.066;2023-07-22T06:12:35;101149.56;;;15.58;100.00
60355;BME280;46198;51.464;-0.066;2023-07-22T06:15:04;101150.75;;;15.62;100.00
60355;BME280;46198;51.464;-0.066;2023-07-22T06:17:32;101140.97;;;15.66;100.00
60355;BME280;46198;51.464;-0.066;2023-07-22T06:20:00;101143.69;;;15.66;100.00
60355;BME280;46198;51.464;-0.066;2023-07-22T06:22:28;101147.16;;;15.73;100.00
60355;BME280;46198;51.464;-0.066;2023-07-22T06:24:56;101134.47;;;15.84;100.00
60355;BME280;46198;51.464;-0.066;2023-07-22T06:27:26;101129.22;;;15.82;100.00
60355;BME280;46198;51.464;-0.066;2023-07-22T06:29:54;101133.22;;;15.91;100.00
60355;BME280;46198;51.464;-0.066;2023-07-22T06:32:22;101130.41;;;15.86;100.00
60355;BME280;46198;51.464;-0.066;2023-07-22T06:34:50;101122.28;;;15.91;100.00
60355;BME280;46198;51.464;-0.066;2023-07-22T06:37:18;101126.25;;;16.01;100.00
60355;BME280;46198;51.464;-0.066;2023-07-22T06:39:46;101128.50;;;16.04;100.00
60355;BME280;46198;51.464;-0.066;2023-07-22T06:42:14;101119.81;;;16.07;100.00
60355;BME280;46198;51.464;-0.066;2023-07-22T06:44:44;101123.94;;;16.09;100.00
60355;BME280;46198;51.464;-0.066;2023-07-22T06:50:56;101123.28;;;16.19;100.00
60355;BME280;46198;51.464;-0.066;2023-07-22T06:53:24;101123.28;;;16.19;100.00
60355;BME280;46198;51.464;-0.066;2023-07-22T06:55:52;101125.00;;;16.25;100.00
60355;BME280;46198;51.464;-0.066;2023-07-22T06:58:21;101128.22;;;16.39;100.00
60355;BME280;46198;51.464;-0.066;2023-07-22T07:00:54;101127.75;;;16.42;100.00
60355;BME280;46198;51.464;-0.066;2023-07-22T07:03:22;101128.06;;;16.46;100.00
60355;BME280;46198;51.464;-0.066;2023-07-22T07:05:52;101129.72;;;16.47;100.00
60355;BME280;46198;51.464;-0.066;2023-07-22T07:08:20;101129.03;;;16.56;100.00
60355;BME280;46198;51.464;-0.066;2023-07-22T07:10:49;101125.47;;;16.56;100.00
60355;BME280;46198;51.464;-0.066;2023-07-22T07:13:18;101128.75;;;16.58;100.00
60355;BME280;46198;51.464;-0.066;2023-07-22T07:15:47;101134.00;;;16.59;100.00
60355;BME280;46198;51.464;-0.066;2023-07-22T07:18:18;101122.03;;;16.66;100.00
60355;BME280;46198;51.464;-0.066;2023-07-22T07:20:46;101122.84;;;16.66;100.00
60355;BME280;46198;51.464;-0.066;2023-07-22T07:23:14;101118.72;;;16.80;100.00
60355;BME280;46198;51.464;-0.066;2023-07-22T07:25:43;101112.72;;;16.83;100.00
60355;BME280;46198;51.464;-0.066;2023-07-22T07:32:43;101109.34;;;17.25;100.00
60355;BME280;46198;51.464;-0.066;2023-07-22T07:35:13;101112.38;;;17.24;100.00
60355;BME280;46198;51.464;-0.066;2023-07-22T07:37:41;101109.88;;;17.22;100.00
60355;BME280;46198;51.464;-0.066;2023-07-22T07:40:10;101105.41;;;17.16;100.00
60355;BME280;46198;51.464;-0.066;2023-07-22T07:42:39;101103.75;;;17.15;100.00
60355;BME280;46198;51.464;-0.066;2023-07-22T07:45:08;101100.97;;;17.10;100.00
60355;BME280;46198;51.464;-0.066;2023-07-22T07:47:37;101106.03;;;17.23;100.00
60355;BME280;46198;51.464;-0.066;2023-07-22T07:50:06;101118.16;;;17.27;100.00
60355;BME280;46198;51.464;-0.066;2023-07-22T07:52:37;101103.56;;;17.22;100.00
60355;BME280;46198;51.464;-0.066;2023-07-22T07:55:07;101114.84;;;17.25;100.00
60355;BME280;46198;51.464;-0.066;2023-07-22T07:57:36;101108.00;;;17.28;100.00
60355;BME280;46198;51.464;-0.066;2023-07-22T08:00:05;101108.94;;;17.39;100.00
60355;BME280;46198;51.464;-0.066;2023-07-22T08:02:36;101103.75;;;17.42;100.00
60355;BME280;46198;51.464;-0.066;2023-07-22T08:05:04;101111.03;;;17.54;100.00
60355;BME280;46198;51.464;-0.066;2023-07-22T08:07:33;101099.81;;;17.60;100.00
60355;BME280;46198;51.464;-0.066;2023-07-22T08:10:05;101101.28;;;17.68;100.00
60355;BME280;46198;51.464;-0.066;2023-07-22T08:12:34;101105.47;;;17.76;100.00
60355;BME280;46198;51.464;-0.066;2023-07-22T08:15:04;101113.81;;;17.86;100.00
60355;BME280;46198;51.464;-0.066;2023-07-22T08:17:33;101094.31;;;17.87;100.00
60355;BME280;46198;51.464;-0.066;2023-07-22T08:20:01;101089.22;;;18.01;100.00
60355;BME280;46198;51.464;-0.066;2023-07-22T08:22:31;101098.56;;;18.00;100.00
60355;BME280;46198;51.464;-0.066;2023-07-22T08:24:59;101089.28;;;18.11;100.00
60355;BME280;46198;51.464;-0.066;2023-07-22T08:27:28;101079.78;;;18.29;100.00
60355;BME280;46198;51.464;-0.066;2023-07-22T08:29:57;101087.78;;;18.31;100.00
60355;BME280;46198;51.464;-0.066;2023-07-22T08:32:25;101082.22;;;18.26;100.00
60355;BME280;46198;51.464;-0.066;2023-07-22T08:34:53;101075.69;;;18.37;100.00
60355;BME280;46198;51.464;-0.066;2023-07-22T08:37:21;101077.47;;;18.58;100.00
60355;BME280;46198;51.464;-0.066;2023-07-22T08:39:49;101069.59;;;18.77;100.00
60355;BME280;46198;51.464;-0.066;2023-07-22T08:42:18;101075.69;;;18.85;100.00
60355;BME280;46198;51.464;-0.066;2023-07-22T08:44:48;101065.81;;;18.94;100.00
60355;BME280;46198;51.464;-0.066;2023-07-22T08:47:21;101065.00;;;18.93;100.00
60355;BME280;46198;51.464;-0.066;2023-07-22T08:49:52;101067.44;;;18.85;100.00
60355;BME280;46198;51.464;-0.066;2023-07-22T08:52:23;101051.81;;;19.11;100.00
60355;BME280;46198;51.464;-0.066;2023-07-22T08:54:52;101049.72;;;19.43;100.00
60355;BME280;46198;51.464;-0.066;2023-07-22T08:57:22;101037.84;;;19.43;99.35
60355;BME280;46198;51.464;-0.066;2023-07-22T08:59:53;101043.09;;;19.60;100.00
60355;BME280;46198;51.464;-0.066;2023-07-22T09:02:22;101048.63;;;19.70;97.29
60355;BME280;46198;51.464;-0.066;2023-07-22T09:04:51;101041.97;;;19.45;97.17
60355;BME280;46198;51.464;-0.066;2023-07-22T09:07:19;101034.28;;;19.47;97.65
60355;BME280;46198;51.464;-0.066;2023-07-22T09:09:48;101045.28;;;19.47;98.21
60355;BME280;46198;51.464;-0.066;2023-07-22T09:12:17;101037.56;;;19.29;91.95
60355;BME280;46198;51.464;-0.066;2023-07-22T09:14:45;101038.63;;;19.18;94.57
60355;BME280;46198;51.464;-0.066;2023-07-22T09:17:16;101045.50;;;19.00;95.57
60355;BME280;46198;51.464;-0.066;2023-07-22T09:19:44;101047.91;;;18.91;100.00
60355;BME280;46198;51.464;-0.066;2023-07-22T09:22:12;101045.47;;;18.90;99.56
60355;BME280;46198;51.464;-0.066;2023-07-22T09:24:40;101051.22;;;18.88;100.00
60355;BME280;46198;51.464;-0.066;2023-07-22T09:27:08;101049.28;;;18.78;100.00
60355;BME280;46198;51.464;-0.066;2023-07-22T09:29:38;101048.66;;;18.71;100.00
60355;BME280;46198;51.464;-0.066;2023-07-22T09:32:07;101052.69;;;18.53;100.00
60355;BME280;46198;51.464;-0.066;2023-07-22T09:34:36;101059.81;;;18.44;100.00
60355;BME280;46198;51.464;-0.066;2023-07-22T09:37:05;101049.34;;;18.41;100.00
60355;BME280;46198;51.464;-0.066;2023-07-22T09:39:34;101058.63;;;18.30;100.00
60355;BME280;46198;51.464;-0.066;2023-07-22T09:42:03;101050.41;;;18.35;100.00
60355;BME280;46198;51.464;-0.066;2023-07-22T09:44:32;101047.63;;;18.30;100.00
60355;BME280;46198;51.464;-0.066;2023-07-22T09:47:06;101059.28;;;18.47;100.00
60355;BME280;46198;51.464;-0.066;2023-07-22T09:49:41;101046.16;;;18.59;100.00
60355;BME280;46198;51.464;-0.066;2023-07-22T09:52:10;101051.88;;;18.53;100.00
60355;BME280;46198;51.464;-0.066;2023-07-22T09:54:48;101050.97;;;18.37;100.00
60355;BME280;46198;51.464;-0.066;2023-07-22T09:57:18;101038.69;;;18.55;100.00
60355;BME280;46198;51.464;-0.066;2023-07-22T09:59:48;101035.63;;;18.46;100.00
60355;BME280;46198;51.464;-0.066;2023-07-22T10:02:18;101049.41;;;18.51;100.00
60355;BME280;46198;51.464;-0.066;2023-07-22T10:04:51;101047.16;;;18.43;100.00
60355;BME280;46198;51.464;-0.066;2023-07-22T10:07:19;101056.00;;;18.55;100.00
60355;BME280;46198;51.464;-0.066;2023-07-22T10:09:49;101044.13;;;18.45;100.00
60355;BME280;46198;51.464;-0.066;2023-07-22T10:12:19;101051.53;;;18.39;100.00
60355;BME280;46198;51.464;-0.066;2023-07-22T10:14:48;101046.38;;;18.53;100.00
60355;BME280;46198;51.464;-0.066;2023-07-22T10:17:17;101038.16;;;18.58;100.00
60355;BME280;46198;51.464;-0.066;2023-07-22T10:19:45;101031.88;;;18.68;100.00
60355;BME280;46198;51.464;-0.066;2023-07-22T10:22:15;101038.56;;;18.82;100.00
60355;BME280;46198;51.464;-0.066;2023-07-22T10:24:47;101037.19;;;18.90;100.00
60355;BME280;46198;51.464;-0.066;2023-07-22T10:27:16;101026.41;;;18.73;100.00
60355;BME280;46198;51.464;-0.066;2023-07-22T10:29:45;101026.69;;;18.76;100.00
60355;BME280;46198;51.464;-0.066;2023-07-22T10:32:14;101030.88;;;18.84;100.00
60355;BME280;46198;51.464;-0.066;2023-07-22T10:34:43;101030.31;;;18.87;100.00
60355;BME280;46198;51.464;-0.066;2023-07-22T10:37:12;101034.13;;;18.76;100.00
60355;BME280;46198;51.464;-0.066;2023-07-22T10:39:41;101021.50;;;18.85;100.00
60355;BME280;46198;51.464;-0.066;2023-07-22T10:42:09;101030.88;;;18.89;100.00
60355;BME280;46198;51.464;-0.066;2023-07-22T10:44:51;101018.78;;;19.00;100.00
60355;BME280;46198;51.464;-0.066;2023-07-22T10:47:31;101010.00;;;19.03;100.00
60355;BME280;46198;51.464;-0.066;2023-07-22T10:50:05;101019.34;;;19.13;98.68
60355;BME280;46198;51.464;-0.066;2023-07-22T10:52:39;101017.16;;;19.10;98.22
60355;BME280;46198;51.464;-0.066;2023-07-22T10:55:17;101007.00;;;19.25;98.46
60355;BME280;46198;51.464;-0.066;2023-07-22T10:57:49;101000.91;;;19.18;97.16
60355;BME280;46198;51.464;-0.066;2023-07-22T11:00:19;101001.22;;;19.17;97.54
60355;BME280;46198;51.464;-0.066;2023-07-22T11:03:09;100998.75;;;19.25;97.29
60355;BME280;46198;51.464;-0.066;2023-07-22T11:05:48;100994.06;;;19.31;96.53
60355;BME280;46198;51.464;-0.066;2023-07-22T11:08:17;100999.00;;;19.19;91.91
60355;BME280;46198;51.464;-0.066;2023-07-22T11:11:04;100994.88;;;19.26;91.44
60355;BME280;46198;51.464;-0.066;2023-07-22T11:13:37;100988.56;;;19.36;92.12
60355;BME280;46198;51.464;-0.066;2023-07-22T11:16:10;100985.25;;;19.49;85.01
60355;BME280;46198;51.464;-0.066;2023-07-22T11:18:40;100985.81;;;19.41;83.34
60355;BME280;46198;51.464;-0.066;2023-07-22T11:21:09;100983.06;;;19.41;81.85
60355;BME280;46198;51.464;-0.066;2023-07-22T11:23:38;100980.84;;;19.38;80.29
60355;BME280;46198;51.464;-0.066;2023-07-22T11:26:07;100980.31;;;19.41;81.90
60355;BME280;46198;51.464;-0.066;2023-07-22T11:28:35;100980.00;;;19.58;81.66
60355;BME280;46198;51.464;-0.066;2023-07-22T11:31:04;100971.78;;;19.68;80.12
60355;BME280;46198;51.464;-0.066;2023-07-22T11:33:39;100974.78;;;19.67;83.06
60355;BME280;46198;51.464;-0.066;2023-07-22T11:36:10;100973.13;;;19.61;79.05
60355;BME280;46198;51.464;-0.066;2023-07-22T11:38:38;100973.72;;;19.68;79.26
60355;BME280;46198;51.464;-0.066;2023-07-22T11:41:08;100957.16;;;19.73;80.87
60355;BME280;46198;51.464;-0.066;2023-07-22T11:43:49;100964.59;;;19.73;85.85
60355;BME280;46198;51.464;-0.066;2023-07-22T11:46:17;100965.41;;;19.73;85.84
60355;BME280;46198;51.464;-0.066;2023-07-22T11:48:51;100967.66;;;19.66;87.73
60355;BME280;46198;51.464;-0.066;2023-07-22T11:51:20;100965.41;;;19.58;90.30
60355;BME280;46198;51.464;-0.066;2023-07-22T11:53:49;100968.72;;;19.44;100.00
60355;BME280;46198;51.464;-0.066;2023-07-22T11:56:20;100970.66;;;19.29;100.00
60355;BME280;46198;51.464;-0.066;2023-07-22T11:58:50;100984.41;;;19.29;100.00
60355;BME280;46198;51.464;-0.066;2023-07-22T12:01:18;100980.59;;;19.24;100.00
60355;BME280;46198;51.464;-0.066;2023-07-22T12:03:47;100985.50;;;19.17;100.00
60355;BME280;46198;51.464;-0.066;2023-07-22T12:06:15;100985.25;;;19.09;100.00
60355;BME280;46198;51.464;-0.066;2023-07-22T12:08:44;100987.41;;;19.01;100.00
60355;BME280;46198;51.464;-0.066;2023-07-22T12:11:18;101002.22;;;18.80;100.00
60355;BME280;46198;51.464;-0.066;2023-07-22T12:13:49;100989.03;;;18.82;100.00
60355;BME280;46198;51.464;-0.066;2023-07-22T12:16:22;100991.75;;;18.77;100.00
60355;BME280;46198;51.464;-0.066;2023-07-22T12:18:54;100993.88;;;18.54;100.00
60355;BME280;46198;51.464;-0.066;2023-07-22T12:21:23;100988.59;;;18.48;100.00
60355;BME280;46198;51.464;-0.066;2023-07-22T12:23:53;100997.63;;;18.33;100.00
60355;BME280;46198;51.464;-0.066;2023-07-22T12:26:23;100990.44;;;18.22;100.00
60355;BME280;46198;51.464;-0.066;2023-07-22T12:28:51;100988.06;;;17.93;100.00
60355;BME280;46198;51.464;-0.066;2023-07-22T12:31:19;100982.03;;;17.64;100.00
60355;BME280;46198;51.464;-0.066;2023-07-22T12:33:47;100986.50;;;17.70;100.00
60355;BME280;46198;51.464;-0.066;2023-07-22T12:36:15;100985.19;;;17.40;100.00
60355;BME280;46198;51.464;-0.066;2023-07-22T12:38:43;100967.56;;;17.36;100.00
60355;BME280;46198;51.464;-0.066;2023-07-22T12:41:11;100967.47;;;17.26;100.00
60355;BME280;46198;51.464;-0.066;2023-07-22T12:43:40;100977.50;;;17.10;100.00
60355;BME280;46198;51.464;-0.066;2023-07-22T12:46:08;100965.66;;;17.04;100.00
60355;BME280;46198;51.464;-0.066;2023-07-22T12:48:37;100970.47;;;16.92;100.00
60355;BME280;46198;51.464;-0.066;2023-07-22T12:51:05;100958.56;;;16.81;100.00
60355;BME280;46198;51.464;-0.066;2023-07-22T12:53:33;100958.59;;;16.87;100.00